createdAt,value
2022-11-22T00:00:28.982Z,6.10
2022-11-22T00:02:56.108Z,6.20
2022-11-22T00:05:23.161Z,6.20
2022-11-22T00:07:50.096Z,6.20
2022-11-22T00:10:17.193Z,6.20
2022-11-22T00:12:44.307Z,6.20
2022-11-22T00:15:12.480Z,6.20
2022-11-22T00:17:40.758Z,6.20
2022-11-22T00:20:10.544Z,6.20
2022-11-22T00:22:44.032Z,6.20
2022-11-22T00:25:11.151Z,6.20
2022-11-22T00:27:37.842Z,6.20
2022-11-22T00:30:05.285Z,6.20
2022-11-22T00:32:32.107Z,6.20
2022-11-22T00:34:58.981Z,6.20
2022-11-22T00:37:25.773Z,6.20
2022-11-22T00:39:52.601Z,6.20
2022-11-22T00:42:19.381Z,6.20
2022-11-22T00:44:46.125Z,6.20
2022-11-22T00:47:12.834Z,6.20
2022-11-22T00:49:39.535Z,6.20
2022-11-22T00:52:07.084Z,6.30
2022-11-22T00:54:33.786Z,6.30
2022-11-22T00:57:00.450Z,6.30
2022-11-22T00:59:27.429Z,6.30
2022-11-22T01:01:54.379Z,6.30
2022-11-22T01:04:21.215Z,6.40
2022-11-22T01:06:47.979Z,6.40
2022-11-22T01:09:19.540Z,6.40
2022-11-22T01:11:46.440Z,6.40
2022-11-22T01:14:13.357Z,6.40
2022-11-22T01:16:40.263Z,6.40
2022-11-22T01:19:07.059Z,6.30
2022-11-22T01:21:34.307Z,6.40
2022-11-22T01:24:01.310Z,6.40
2022-11-22T01:26:28.242Z,6.40
2022-11-22T01:28:54.917Z,6.40
2022-11-22T01:31:21.702Z,6.40
2022-11-22T01:33:48.484Z,6.40
2022-11-22T01:36:15.255Z,6.40
2022-11-22T01:38:41.951Z,6.40
2022-11-22T01:41:08.716Z,6.50
2022-11-22T01:43:35.374Z,6.50
2022-11-22T01:46:15.622Z,6.50
2022-11-22T01:48:53.430Z,6.50
2022-11-22T01:51:22.993Z,6.60
2022-11-22T01:53:49.937Z,6.60
2022-11-22T01:56:19.640Z,6.60
2022-11-22T01:58:52.439Z,6.60
2022-11-22T02:01:19.678Z,6.70
2022-11-22T02:03:49.326Z,6.70
2022-11-22T02:06:17.069Z,6.70
2022-11-22T02:08:56.694Z,6.70
2022-11-22T02:11:30.968Z,6.70
2022-11-22T02:14:00.571Z,6.80
2022-11-22T02:16:27.743Z,6.70
2022-11-22T02:18:54.451Z,6.70
2022-11-22T02:21:21.231Z,6.80
2022-11-22T02:24:07.857Z,6.80
2022-11-22T02:26:34.647Z,6.80
2022-11-22T02:29:05.244Z,6.80
2022-11-22T02:31:47.092Z,6.80
2022-11-22T02:34:14.557Z,6.80
2022-11-22T02:36:48.929Z,6.80
2022-11-22T02:39:19.736Z,6.80
2022-11-22T02:41:47.963Z,6.80
2022-11-22T02:44:15.570Z,6.80
2022-11-22T02:46:50.928Z,6.70
2022-11-22T02:49:22.751Z,6.70
2022-11-22T02:51:50.243Z,6.60
2022-11-22T02:54:17.175Z,6.60
2022-11-22T02:56:44.329Z,6.50
2022-11-22T02:59:11.126Z,6.60
2022-11-22T03:01:38.431Z,6.50
2022-11-22T03:04:05.282Z,6.50
2022-11-22T03:06:32.005Z,6.50
2022-11-22T03:08:58.763Z,6.50
2022-11-22T03:11:25.829Z,6.60
2022-11-22T03:13:52.636Z,6.50
2022-11-22T03:16:19.356Z,6.50
2022-11-22T03:18:46.269Z,6.40
2022-11-22T03:21:12.959Z,6.40
2022-11-22T03:23:39.711Z,6.40
2022-11-22T03:26:12.327Z,6.40
2022-11-22T03:28:39.030Z,6.40
2022-11-22T03:31:06.907Z,6.50
2022-11-22T03:33:34.517Z,6.40
2022-11-22T03:36:01.451Z,6.40
2022-11-22T03:38:28.348Z,6.50
2022-11-22T03:40:55.031Z,6.50
2022-11-22T03:43:22.141Z,6.50
2022-11-22T03:45:49.182Z,6.50
2022-11-22T03:48:15.942Z,6.50
2022-11-22T03:50:42.665Z,6.50
2022-11-22T03:53:09.726Z,6.60
2022-11-22T03:55:36.656Z,6.50
2022-11-22T03:58:03.598Z,6.50
2022-11-22T04:00:30.427Z,6.50
2022-11-22T04:02:57.114Z,6.50
2022-11-22T04:05:23.913Z,6.40
2022-11-22T04:07:56.017Z,6.40
2022-11-22T04:10:23.477Z,6.40
2022-11-22T04:12:50.325Z,6.40
2022-11-22T04:15:17.462Z,6.40
2022-11-22T04:17:45.818Z,6.40
2022-11-22T04:20:36.005Z,6.40
2022-11-22T04:23:05.836Z,6.40
2022-11-22T04:25:34.073Z,6.40
2022-11-22T04:28:01.395Z,6.40
2022-11-22T04:30:47.157Z,6.30
2022-11-22T04:33:14.855Z,6.30
2022-11-22T04:35:42.645Z,6.30
2022-11-22T04:38:09.540Z,6.20
2022-11-22T04:40:36.777Z,6.20
2022-11-22T04:43:22.561Z,6.20
2022-11-22T04:45:49.681Z,6.20
2022-11-22T04:48:17.724Z,6.20
2022-11-22T04:51:03.854Z,6.20
2022-11-22T04:53:30.846Z,6.10
2022-11-22T04:55:57.699Z,6.20
2022-11-22T04:58:24.625Z,6.10
2022-11-22T05:00:52.000Z,6.10
2022-11-22T05:03:18.786Z,6.10
2022-11-22T05:05:45.667Z,6.10
2022-11-22T05:08:13.400Z,6.00
2022-11-22T05:10:59.701Z,6.00
2022-11-22T05:13:29.732Z,5.90
2022-11-22T05:15:58.149Z,5.90
2022-11-22T05:18:25.923Z,5.80
2022-11-22T05:20:52.930Z,5.80
2022-11-22T05:23:38.804Z,5.80
2022-11-22T05:26:06.272Z,5.80
2022-11-22T05:28:36.092Z,5.70
2022-11-22T05:31:14.150Z,5.70
2022-11-22T05:33:44.699Z,5.70
2022-11-22T05:36:12.743Z,5.60
2022-11-22T05:38:40.123Z,5.60
2022-11-22T05:41:09.540Z,5.60
2022-11-22T05:43:36.592Z,5.60
2022-11-22T05:46:06.735Z,5.50
2022-11-22T05:48:33.479Z,5.50
2022-11-22T05:51:07.263Z,5.50
2022-11-22T05:53:34.722Z,5.40
2022-11-22T05:56:06.468Z,5.40
2022-11-22T05:58:33.663Z,5.40
2022-11-22T06:01:19.276Z,5.30
2022-11-22T06:03:47.035Z,5.30
2022-11-22T06:06:14.180Z,5.30
2022-11-22T06:08:43.356Z,5.20
2022-11-22T06:11:30.455Z,5.20
2022-11-22T06:14:00.492Z,5.20
2022-11-22T06:16:27.537Z,5.20
2022-11-22T06:18:54.656Z,5.20
2022-11-22T06:21:26.262Z,5.20
2022-11-22T06:23:56.413Z,5.10
2022-11-22T06:26:24.637Z,5.10
2022-11-22T06:28:52.101Z,5.10
2022-11-22T06:31:21.270Z,5.00
2022-11-22T06:33:48.762Z,5.00
2022-11-22T06:36:19.354Z,5.00
2022-11-22T06:38:46.932Z,5.00
2022-11-22T06:41:17.486Z,4.90
2022-11-22T06:43:49.039Z,4.90
2022-11-22T06:46:27.033Z,5.00
2022-11-22T06:48:53.961Z,4.90
2022-11-22T06:51:23.872Z,4.90
2022-11-22T06:53:51.890Z,4.90
2022-11-22T06:56:47.426Z,4.80
2022-11-22T06:59:14.180Z,4.80
2022-11-22T07:01:40.921Z,4.80
2022-11-22T07:04:07.887Z,4.80
2022-11-22T07:06:38.521Z,4.80
2022-11-22T07:09:08.637Z,4.70
2022-11-22T07:11:36.378Z,4.80
2022-11-22T07:14:08.241Z,4.70
2022-11-22T07:16:37.479Z,4.80
2022-11-22T07:19:05.080Z,4.70
2022-11-22T07:21:32.562Z,4.70
2022-11-22T07:23:59.374Z,4.70
2022-11-22T07:26:26.924Z,4.70
2022-11-22T07:28:53.931Z,4.70
2022-11-22T07:31:21.270Z,4.70
2022-11-22T07:33:48.297Z,4.60
2022-11-22T07:36:18.219Z,4.60
2022-11-22T07:38:45.692Z,4.70
2022-11-22T07:41:12.748Z,4.60
2022-11-22T07:43:39.513Z,4.70
2022-11-22T07:46:08.411Z,4.70
2022-11-22T07:48:35.180Z,4.70
2022-11-22T07:51:08.406Z,4.80
2022-11-22T07:53:35.935Z,4.80
2022-11-22T07:56:06.398Z,4.90
2022-11-22T07:58:34.436Z,5.00
2022-11-22T08:01:11.983Z,5.00
2022-11-22T08:03:39.718Z,5.10
2022-11-22T08:06:08.889Z,5.20
2022-11-22T08:08:36.626Z,5.20
2022-11-22T08:11:04.770Z,5.20
2022-11-22T08:13:32.469Z,5.30
2022-11-22T08:16:11.601Z,5.30
2022-11-22T08:18:39.430Z,5.40
2022-11-22T08:21:17.398Z,5.30
2022-11-22T08:23:44.970Z,5.40
2022-11-22T08:26:14.988Z,5.50
2022-11-22T08:28:44.891Z,5.50
2022-11-22T08:31:18.986Z,5.50
2022-11-22T08:33:49.058Z,5.60
2022-11-22T08:36:15.831Z,5.60
2022-11-22T08:38:45.844Z,5.60
2022-11-22T08:41:13.039Z,5.70
2022-11-22T08:43:39.782Z,5.70
2022-11-22T08:46:06.881Z,5.80
2022-11-22T08:48:35.642Z,5.80
2022-11-22T08:51:07.471Z,5.80
2022-11-22T08:53:36.307Z,5.90
2022-11-22T08:56:05.232Z,5.90
2022-11-22T08:58:33.543Z,5.90
2022-11-22T09:01:10.717Z,5.90
2022-11-22T09:03:38.361Z,6.00
2022-11-22T09:09:08.715Z,6.10
2022-11-22T09:11:41.089Z,6.00
2022-11-22T09:14:07.809Z,6.00
2022-11-22T09:16:34.553Z,6.10
2022-11-22T09:19:01.240Z,6.00
2022-11-22T09:21:28.076Z,6.10
2022-11-22T09:23:54.762Z,6.10
2022-11-22T09:26:24.515Z,6.10
2022-11-22T09:28:53.467Z,6.20
2022-11-22T09:31:21.595Z,6.20
2022-11-22T09:33:49.529Z,6.30
2022-11-22T09:36:19.193Z,6.30
2022-11-22T09:38:46.437Z,6.40
2022-11-22T09:41:16.240Z,6.40
2022-11-22T09:44:09.287Z,6.40
2022-11-22T09:46:52.397Z,6.40
2022-11-22T09:49:28.560Z,6.40
2022-11-22T09:52:10.134Z,6.50
2022-11-22T09:54:55.667Z,6.50
2022-11-22T09:57:37.560Z,6.60
2022-11-22T10:00:14.238Z,6.70
2022-11-22T10:03:00.063Z,6.70
2022-11-22T10:05:54.352Z,6.80
2022-11-22T10:08:30.223Z,6.80
2022-11-22T10:10:59.957Z,6.80
2022-11-22T10:13:49.964Z,6.80
2022-11-22T10:16:25.314Z,6.80
2022-11-22T10:19:19.547Z,6.90
2022-11-22T10:21:48.895Z,6.90
2022-11-22T10:24:17.543Z,6.90
2022-11-22T10:26:46.824Z,6.90
2022-11-22T10:29:23.446Z,7.00
2022-11-22T10:32:02.807Z,7.10
2022-11-22T10:35:06.701Z,7.10
2022-11-22T10:38:11.818Z,7.20
2022-11-22T10:40:50.183Z,7.20
2022-11-22T10:43:41.027Z,7.20
2022-11-22T10:46:22.684Z,7.20
2022-11-22T10:49:14.479Z,7.30
2022-11-22T10:52:15.274Z,7.30
2022-11-22T10:55:09.742Z,7.40
2022-11-22T10:57:45.799Z,7.40
2022-11-22T11:00:26.959Z,7.40
2022-11-22T11:03:05.637Z,7.50
2022-11-22T11:05:54.957Z,7.50
2022-11-22T11:11:30.980Z,7.60
2022-11-22T11:14:04.600Z,7.50
2022-11-22T11:16:35.696Z,7.60
2022-11-22T11:19:11.376Z,7.60
2022-11-22T11:21:38.285Z,7.60
2022-11-22T11:24:14.043Z,7.40
2022-11-22T11:26:43.283Z,7.50
2022-11-22T11:29:19.073Z,7.60
2022-11-22T11:31:50.769Z,7.70
2022-11-22T11:34:20.691Z,7.60
2022-11-22T11:36:48.378Z,7.60
2022-11-22T11:39:29.542Z,7.60
2022-11-22T11:41:57.795Z,7.60
2022-11-22T11:44:36.155Z,7.60
2022-11-22T11:47:06.595Z,7.60
2022-11-22T11:49:34.962Z,7.60
2022-11-22T11:52:18.978Z,7.60
2022-11-22T11:54:48.492Z,7.60
2022-11-22T11:57:19.018Z,7.60
2022-11-22T11:59:48.594Z,7.60
2022-11-22T12:02:25.743Z,7.60
2022-11-22T12:05:05.598Z,7.60
2022-11-22T12:07:35.175Z,7.70
2022-11-22T12:10:22.884Z,7.70
2022-11-22T12:12:53.449Z,7.80
2022-11-22T12:15:39.401Z,7.80
2022-11-22T12:18:43.465Z,7.90
2022-11-22T12:21:22.800Z,7.90
2022-11-22T12:24:41.028Z,7.90
2022-11-22T12:26:56.937Z,7.90
2022-11-22T12:29:24.318Z,7.90
2022-11-22T12:32:13.040Z,8.00
2022-11-22T12:34:55.153Z,7.90
2022-11-22T12:38:02.692Z,7.90
2022-11-22T12:40:54.413Z,8.00
2022-11-22T12:43:39.375Z,8.00
2022-11-22T12:46:13.805Z,8.00
2022-11-22T12:48:49.228Z,8.00
2022-11-22T12:51:26.821Z,8.00
2022-11-22T12:53:59.618Z,8.00
2022-11-22T12:56:49.110Z,8.10
2022-11-22T12:59:22.061Z,8.10
2022-11-22T13:01:58.400Z,8.10
2022-11-22T13:04:44.119Z,8.10
2022-11-22T13:07:22.634Z,8.10
2022-11-22T13:09:55.445Z,8.10
2022-11-22T13:12:32.705Z,8.00
2022-11-22T13:15:00.262Z,8.10
2022-11-22T13:17:33.972Z,8.00
2022-11-22T13:20:05.217Z,8.00
2022-11-22T13:23:05.648Z,8.00
2022-11-22T13:25:58.829Z,8.00
2022-11-22T13:28:32.610Z,8.00
2022-11-22T13:31:08.283Z,7.90
2022-11-22T13:33:40.348Z,7.90
2022-11-22T13:36:29.305Z,7.90
2022-11-22T13:39:02.451Z,8.00
2022-11-22T13:41:37.431Z,7.90
2022-11-22T13:44:22.438Z,7.90
2022-11-22T13:46:53.961Z,7.90
2022-11-22T13:49:40.015Z,8.00
2022-11-22T13:52:15.395Z,7.90
2022-11-22T13:54:48.049Z,7.90
2022-11-22T13:57:23.624Z,7.90
2022-11-22T14:00:13.948Z,8.00
2022-11-22T14:03:14.917Z,8.00
2022-11-22T14:05:53.734Z,8.00
2022-11-22T14:08:43.917Z,8.00
2022-11-22T14:11:25.862Z,8.00
2022-11-22T14:14:22.208Z,8.00
2022-11-22T14:17:14.572Z,8.10
2022-11-22T14:20:03.931Z,8.10
2022-11-22T14:22:45.011Z,8.10
2022-11-22T14:25:30.844Z,8.10
2022-11-22T14:28:04.691Z,8.10
2022-11-22T14:30:54.212Z,8.10
2022-11-22T14:33:26.590Z,8.10
2022-11-22T14:36:09.571Z,8.10
2022-11-22T14:38:43.224Z,8.10
2022-11-22T14:41:30.969Z,8.10
2022-11-22T14:44:17.256Z,8.10
2022-11-22T14:46:53.933Z,8.10
2022-11-22T14:49:44.200Z,8.10
2022-11-22T14:52:32.675Z,8.10
2022-11-22T14:55:02.617Z,8.10
2022-11-22T14:57:32.646Z,8.10
2022-11-22T15:00:20.773Z,8.10
2022-11-22T15:03:12.294Z,8.10
2022-11-22T15:09:14.565Z,8.10
2022-11-22T15:09:39.380Z,8.10
2022-11-22T15:12:22.996Z,8.10
2022-11-22T15:59:41.857Z,8.00
2022-11-22T16:02:21.928Z,8.00
2022-11-22T16:06:07.071Z,8.00
2022-11-22T16:07:47.163Z,8.00
2022-11-22T16:10:37.173Z,8.00
2022-11-22T16:13:19.288Z,8.00
2022-11-22T16:16:12.666Z,8.00
2022-11-22T16:18:43.898Z,8.00
2022-11-22T16:21:13.426Z,8.00
2022-11-22T16:23:41.636Z,8.10
2022-11-22T16:26:17.580Z,8.00
2022-11-22T16:28:44.617Z,8.10
2022-11-22T16:31:24.060Z,8.10
2022-11-22T16:33:52.281Z,8.10
2022-11-22T16:36:21.493Z,8.00
2022-11-22T16:38:48.372Z,8.10
2022-11-22T16:41:26.699Z,8.00
2022-11-22T16:43:56.384Z,8.00
2022-11-22T16:46:23.165Z,8.00
2022-11-22T16:48:50.316Z,8.00
2022-11-22T16:51:35.033Z,8.00
2022-11-22T16:54:10.680Z,7.90
2022-11-22T16:56:37.529Z,7.90
2022-11-22T16:59:09.629Z,7.90
2022-11-22T17:01:42.061Z,7.90
2022-11-22T17:04:22.273Z,7.90
2022-11-22T17:06:49.240Z,7.90
2022-11-22T17:09:25.155Z,7.80
2022-11-22T17:11:51.996Z,7.80
2022-11-22T17:14:18.929Z,7.70
2022-11-22T17:16:47.422Z,7.70
2022-11-22T17:19:30.177Z,7.70
2022-11-22T17:22:01.363Z,7.70
2022-11-22T17:24:29.035Z,7.70
2022-11-22T17:27:10.180Z,7.80
2022-11-22T17:29:52.150Z,7.80
2022-11-22T17:32:19.711Z,7.90
2022-11-22T17:34:46.946Z,7.90
2022-11-22T17:37:13.984Z,7.90
2022-11-22T17:39:40.928Z,7.80
2022-11-22T17:42:08.059Z,7.90
2022-11-22T17:44:34.798Z,7.80
2022-11-22T17:47:01.624Z,7.80
2022-11-22T17:49:28.882Z,7.80
2022-11-22T17:51:55.994Z,7.80
2022-11-22T17:54:22.795Z,7.80
2022-11-22T17:56:49.474Z,7.80
2022-11-22T17:59:16.242Z,7.90
2022-11-22T18:01:43.366Z,7.90
2022-11-22T18:04:10.499Z,7.80
2022-11-22T18:06:37.311Z,7.90
2022-11-22T18:09:04.270Z,7.90
2022-11-22T18:11:31.285Z,7.90
2022-11-22T18:13:58.039Z,7.90
2022-11-22T18:16:28.567Z,7.90
2022-11-22T18:18:57.555Z,7.90
2022-11-22T18:21:25.454Z,7.90
2022-11-22T18:23:52.170Z,7.90
2022-11-22T18:31:53.830Z,7.90
2022-11-22T18:34:22.260Z,7.90
2022-11-22T18:37:01.387Z,7.90
2022-11-22T18:39:38.766Z,7.90
2022-11-22T18:42:08.401Z,8.00
2022-11-22T18:44:35.244Z,8.00
2022-11-22T18:47:01.967Z,8.00
2022-11-22T18:49:29.124Z,7.90
2022-11-22T18:51:56.168Z,8.00
2022-11-22T18:54:23.283Z,8.00
2022-11-22T18:56:51.376Z,8.00
2022-11-22T18:59:18.591Z,8.00
2022-11-22T19:01:45.684Z,8.00
2022-11-22T19:04:16.824Z,8.00
2022-11-22T19:06:44.578Z,8.00
2022-11-22T19:09:11.607Z,8.00
2022-11-22T19:11:38.564Z,8.00
2022-11-22T19:14:05.553Z,8.00
2022-11-22T19:16:32.418Z,8.00
2022-11-22T19:18:59.683Z,8.00
2022-11-22T19:21:28.298Z,8.00
2022-11-22T19:23:56.339Z,8.00
2022-11-22T19:26:25.526Z,8.00
2022-11-22T19:28:56.636Z,8.00
2022-11-22T19:31:29.188Z,8.00
2022-11-22T19:33:56.634Z,8.10
2022-11-22T19:36:31.793Z,8.10
2022-11-22T19:39:00.085Z,8.00
2022-11-22T19:41:27.264Z,8.00
2022-11-22T19:43:55.896Z,8.00
2022-11-22T19:46:23.027Z,8.00
2022-11-22T19:48:54.253Z,8.00
2022-11-22T19:51:22.280Z,8.00
2022-11-22T19:53:53.425Z,8.00
2022-11-22T19:56:20.900Z,8.00
2022-11-22T19:58:55.396Z,8.10
2022-11-22T20:01:24.833Z,8.10
2022-11-22T20:03:58.001Z,8.10
2022-11-22T20:06:25.406Z,8.10
2022-11-22T20:08:52.210Z,8.10
2022-11-22T20:11:21.157Z,8.10
2022-11-22T20:13:50.632Z,8.20
2022-11-22T20:16:26.280Z,8.10
2022-11-22T20:18:57.663Z,8.20
2022-11-22T20:21:25.738Z,8.20
2022-11-22T20:23:53.133Z,8.20
2022-11-22T20:26:20.596Z,8.20
2022-11-22T20:28:48.174Z,8.20
2022-11-22T20:31:18.006Z,8.20
2022-11-22T20:33:49.704Z,8.20
2022-11-22T20:36:20.897Z,8.30
2022-11-22T20:38:49.420Z,8.30
2022-11-22T20:41:18.088Z,8.30
2022-11-22T20:43:45.488Z,8.30
2022-11-22T20:46:15.057Z,8.30
2022-11-22T20:48:44.053Z,8.30
2022-11-22T20:51:14.251Z,8.30
2022-11-22T20:53:42.351Z,8.30
2022-11-22T20:56:09.917Z,8.30
2022-11-22T20:58:36.889Z,8.30
2022-11-22T21:01:13.606Z,8.30
2022-11-22T21:03:40.374Z,8.40
2022-11-22T21:06:07.744Z,8.40
2022-11-22T21:08:34.675Z,8.40
2022-11-22T21:11:16.407Z,8.40
2022-11-22T21:13:44.040Z,8.40
2022-11-22T21:16:22.701Z,8.40
2022-11-22T21:19:02.102Z,8.40
2022-11-22T21:21:29.641Z,8.40
2022-11-22T21:23:58.186Z,8.40
2022-11-22T21:26:25.509Z,8.40
2022-11-22T21:28:53.368Z,8.40
2022-11-22T21:31:21.442Z,8.50
2022-11-22T21:33:48.827Z,8.50
2022-11-22T21:36:16.158Z,8.50
2022-11-22T21:38:42.920Z,8.50
2022-11-22T21:44:00.439Z,8.60
2022-11-22T21:46:27.212Z,8.60
2022-11-22T21:48:55.869Z,8.60
2022-11-22T21:51:25.780Z,8.50
2022-11-22T21:53:56.712Z,8.60
2022-11-22T21:56:23.552Z,8.60
2022-11-22T21:58:50.216Z,8.60
2022-11-22T22:01:17.029Z,8.60
2022-11-22T22:03:43.826Z,8.60
2022-11-22T22:06:10.603Z,8.60
2022-11-22T22:08:37.712Z,8.60
2022-11-22T22:11:05.365Z,8.60
2022-11-22T22:13:33.463Z,8.60
2022-11-22T22:16:03.685Z,8.60
2022-11-22T22:18:32.253Z,8.60
2022-11-22T22:21:10.892Z,8.60
2022-11-22T22:23:39.807Z,8.60
2022-11-22T22:26:08.889Z,8.60
2022-11-22T22:28:37.364Z,8.70
2022-11-22T22:31:14.421Z,8.70
2022-11-22T22:33:42.001Z,8.60
2022-11-22T22:36:10.278Z,8.70
2022-11-22T22:38:38.347Z,8.70
2022-11-22T22:41:06.251Z,8.70
2022-11-22T22:43:36.018Z,8.70
2022-11-22T22:46:27.260Z,8.70
2022-11-22T22:48:55.030Z,8.70
2022-11-22T22:51:32.403Z,8.80
2022-11-22T22:54:00.760Z,8.80
2022-11-22T22:56:29.267Z,8.80
2022-11-22T22:58:56.926Z,8.70
2022-11-22T23:01:26.291Z,8.70
2022-11-22T23:03:55.034Z,8.70
2022-11-22T23:06:24.950Z,8.70
2022-11-22T23:08:53.281Z,8.70
2022-11-22T23:11:43.860Z,8.80
2022-11-22T23:14:12.331Z,8.70
2022-11-22T23:16:39.660Z,8.80
2022-11-22T23:19:07.226Z,8.80
2022-11-22T23:21:35.737Z,8.80
2022-11-22T23:24:08.830Z,8.80
2022-11-22T23:26:36.634Z,8.80
2022-11-22T23:29:04.498Z,8.80
2022-11-22T23:31:32.175Z,8.80
2022-11-22T23:34:02.909Z,8.80
2022-11-22T23:36:29.932Z,8.80
2022-11-22T23:38:56.842Z,8.80
2022-11-22T23:41:24.798Z,8.80
2022-11-22T23:43:55.902Z,8.80
2022-11-22T23:46:25.963Z,8.80
2022-11-22T23:48:55.220Z,8.80
2022-11-22T23:51:22.031Z,8.80
2022-11-22T23:53:49.005Z,8.90
2022-11-22T23:56:21.860Z,8.80
2022-11-22T23:58:50.824Z,8.90
